This is the latest recevied weather packets stored in our database for station/object VE4JMP. If no packets are shown the sender has not sent any weather packets the latest 10 day(s).
| Time | Temp. | Humidity | Pressure | Rain* | Wind** | Luminosity | Snow |
|---|---|---|---|---|---|---|---|
| 1777466425 | 0.56° C | 71% | 1021.9 hPa | 0 mm | - | - | - |
| 1777461623 | -1.11° C | 84% | 1021.4 hPa | 0 mm | - | - | - |
| 1777458025 | -0.56° C | 84% | 1021.2 hPa | 0 mm | - | - | - |
| 1777457417 | -0.56° C | 84% | 1020.9 hPa | 0 mm | - | - | - |
| 1777455037 | -0.56° C | 80% | 1020.9 hPa | 0 mm | - | - | - |
| 1777453825 | -0.56° C | 79% | 1020.7 hPa | 0 mm | - | - | - |
| 1777447852 | 0.56° C | 84% | 1020.4 hPa | 0 mm | - | - | - |
| 1777435842 | 1.67° C | 70% | 1020.5 hPa | 0 mm | - | - | - |
| 1777430432 | 2.22° C | 66% | 1020.5 hPa | 0 mm | - | - | - |
| 1777419639 | 4.44° C | 54% | 1019.3 hPa | 0 mm | - | - | - |
| 1777419023 | 4.44° C | 53% | 1019.4 hPa | 0 mm | - | - | - |
| 1777416027 | 5° C | 50% | 1019.2 hPa | 0 mm | - | - | - |
| 1777410630 | 6.11° C | 45% | 1019.3 hPa | 0 mm | - | - | - |
| 1777402239 | 5.56° C | 46% | 1019.5 hPa | 0 mm | - | - | - |
| 1777400431 | 6.11° C | 47% | 1019.4 hPa | 0 mm | - | - | - |
| 1777395629 | 6.11° C | 46% | 1019.4 hPa | 0 mm | - | - | - |
| 1777394420 | 6.11° C | 46% | 1019.2 hPa | 0 mm | - | - | - |
| 1777391418 | 6.67° C | 49% | 1019 hPa | 0 mm | - | - | - |
| 1777390816 | 7.22° C | 51% | 1018.9 hPa | 0 mm | - | - | - |
| 1777389023 | 6.67° C | 52% | 1018.7 hPa | 0 mm | - | - | - |
| 1777388428 | 6.67° C | 54% | 1018.6 hPa | 0 mm | - | - | - |
| 1777386027 | 5° C | 57% | 1018.4 hPa | 0 mm | - | - | - |
| 1777384817 | 3.89° C | 60% | 1018.2 hPa | 0 mm | - | - | - |
| 1777380015 | 0.56° C | 70% | 1017.3 hPa | 0 mm | - | - | - |
| 1777378825 | -1.11° C | 75% | 1017.1 hPa | 0 mm | - | - | - |
* Rain latest hour (hover to see other rain measurements)
** Current wind speed in m/s (hover to see current wind gust speed)